sensor_id;sensor_type;location;lat;lon;timestamp;P1;durP1;ratioP1;P2;durP2;ratioP2
71296;SDS011;59082;50.658;4.608;2022-10-16T06:38:33;7.85;;;4.22;;
71296;SDS011;59082;50.658;4.608;2022-10-16T06:40:59;7.07;;;4.17;;
71296;SDS011;59082;50.658;4.608;2022-10-16T06:43:25;5.63;;;4.47;;
71296;SDS011;59082;50.658;4.608;2022-10-16T06:45:55;6.50;;;4.43;;
71296;SDS011;59082;50.658;4.608;2022-10-16T06:48:22;7.22;;;4.32;;
71296;SDS011;59082;50.658;4.608;2022-10-16T06:50:59;7.03;;;4.57;;
71296;SDS011;59082;50.658;4.608;2022-10-16T06:53:34;7.10;;;4.03;;
71296;SDS011;59082;50.658;4.608;2022-10-16T06:56:10;7.63;;;4.78;;
71296;SDS011;59082;50.658;4.608;2022-10-16T06:58:37;5.95;;;4.47;;
71296;SDS011;59082;50.658;4.608;2022-10-16T07:01:03;7.43;;;4.75;;
71296;SDS011;59082;50.658;4.608;2022-10-16T07:03:30;6.55;;;4.82;;
71296;SDS011;59082;50.658;4.608;2022-10-16T07:05:56;6.03;;;4.00;;
71296;SDS011;59082;50.658;4.608;2022-10-16T07:08:21;6.10;;;4.90;;
71296;SDS011;59082;50.658;4.608;2022-10-16T07:10:47;8.50;;;5.50;;
71296;SDS011;59082;50.658;4.608;2022-10-16T07:13:13;9.00;;;4.75;;
71296;SDS011;59082;50.658;4.608;2022-10-16T07:15:39;8.38;;;4.53;;
71296;SDS011;59082;50.658;4.608;2022-10-16T07:18:06;8.73;;;5.70;;
71296;SDS011;59082;50.658;4.608;2022-10-16T07:20:32;7.87;;;4.90;;
71296;SDS011;59082;50.658;4.608;2022-10-16T07:22:58;6.60;;;4.88;;
71296;SDS011;59082;50.658;4.608;2022-10-16T07:25:23;11.00;;;4.90;;
71296;SDS011;59082;50.658;4.608;2022-10-16T07:27:49;7.55;;;4.50;;
71296;SDS011;59082;50.658;4.608;2022-10-16T07:30:15;8.70;;;4.65;;
71296;SDS011;59082;50.658;4.608;2022-10-16T07:32:41;9.57;;;5.30;;
71296;SDS011;59082;50.658;4.608;2022-10-16T07:35:06;10.47;;;5.73;;
71296;SDS011;59082;50.658;4.608;2022-10-16T07:37:32;10.73;;;5.97;;
71296;SDS011;59082;50.658;4.608;2022-10-16T07:39:57;13.60;;;6.87;;
71296;SDS011;59082;50.658;4.608;2022-10-16T07:42:23;12.03;;;5.50;;
71296;SDS011;59082;50.658;4.608;2022-10-16T07:44:48;10.23;;;6.47;;
71296;SDS011;59082;50.658;4.608;2022-10-16T07:47:14;10.27;;;5.70;;
71296;SDS011;59082;50.658;4.608;2022-10-16T07:49:39;14.33;;;6.33;;
71296;SDS011;59082;50.658;4.608;2022-10-16T07:52:05;9.37;;;6.57;;
71296;SDS011;59082;50.658;4.608;2022-10-16T07:54:30;13.80;;;6.37;;
71296;SDS011;59082;50.658;4.608;2022-10-16T07:56:56;15.30;;;7.10;;
71296;SDS011;59082;50.658;4.608;2022-10-16T07:59:21;9.43;;;5.47;;
71296;SDS011;59082;50.658;4.608;2022-10-16T08:01:48;13.00;;;6.07;;
71296;SDS011;59082;50.658;4.608;2022-10-16T08:04:14;8.02;;;5.60;;
71296;SDS011;59082;50.658;4.608;2022-10-16T08:06:41;7.97;;;4.73;;
71296;SDS011;59082;50.658;4.608;2022-10-16T08:09:07;10.50;;;5.10;;
71296;SDS011;59082;50.658;4.608;2022-10-16T08:11:33;5.88;;;3.55;;
71296;SDS011;59082;50.658;4.608;2022-10-16T08:13:59;6.10;;;3.58;;
71296;SDS011;59082;50.658;4.608;2022-10-16T08:16:25;5.00;;;3.47;;
71296;SDS011;59082;50.658;4.608;2022-10-16T08:18:50;5.13;;;3.53;;
71296;SDS011;59082;50.658;4.608;2022-10-16T08:21:17;5.47;;;3.13;;
71296;SDS011;59082;50.658;4.608;2022-10-16T08:23:48;5.45;;;3.13;;
71296;SDS011;59082;50.658;4.608;2022-10-16T08:26:15;3.40;;;2.58;;
71296;SDS011;59082;50.658;4.608;2022-10-16T08:28:40;4.10;;;3.00;;
71296;SDS011;59082;50.658;4.608;2022-10-16T08:31:10;7.53;;;3.72;;
71296;SDS011;59082;50.658;4.608;2022-10-16T08:33:37;3.23;;;2.57;;
71296;SDS011;59082;50.658;4.608;2022-10-16T08:36:04;4.97;;;2.30;;
71296;SDS011;59082;50.658;4.608;2022-10-16T08:38:31;5.05;;;2.97;;
71296;SDS011;59082;50.658;4.608;2022-10-16T08:41:01;3.95;;;3.55;;
71296;SDS011;59082;50.658;4.608;2022-10-16T08:49:13;3.33;;;2.45;;
71296;SDS011;59082;50.658;4.608;2022-10-16T08:51:40;4.97;;;2.10;;
71296;SDS011;59082;50.658;4.608;2022-10-16T08:54:08;4.80;;;2.23;;
71296;SDS011;59082;50.658;4.608;2022-10-16T08:56:46;3.95;;;2.35;;
71296;SDS011;59082;50.658;4.608;2022-10-16T08:59:11;5.13;;;2.50;;
71296;SDS011;59082;50.658;4.608;2022-10-16T09:01:41;4.37;;;1.33;;
71296;SDS011;59082;50.658;4.608;2022-10-16T09:04:46;2.72;;;1.15;;
71296;SDS011;59082;50.658;4.608;2022-10-16T09:22:44;3.05;;;1.10;;
71296;SDS011;59082;50.658;4.608;2022-10-16T09:25:14;2.88;;;1.10;;
71296;SDS011;59082;50.658;4.608;2022-10-16T09:27:46;3.10;;;1.20;;
71296;SDS011;59082;50.658;4.608;2022-10-16T09:30:18;3.07;;;1.20;;
71296;SDS011;59082;50.658;4.608;2022-10-16T09:32:48;3.67;;;1.75;;
71296;SDS011;59082;50.658;4.608;2022-10-16T09:35:17;4.25;;;1.60;;
71296;SDS011;59082;50.658;4.608;2022-10-16T09:37:50;4.32;;;2.35;;
71296;SDS011;59082;50.658;4.608;2022-10-16T09:40:51;3.92;;;2.40;;
71296;SDS011;59082;50.658;4.608;2022-10-16T09:43:21;4.37;;;1.00;;
71296;SDS011;59082;50.658;4.608;2022-10-16T09:45:58;5.53;;;2.00;;
71296;SDS011;59082;50.658;4.608;2022-10-16T09:48:37;4.15;;;2.00;;
71296;SDS011;59082;50.658;4.608;2022-10-16T09:51:36;4.45;;;1.55;;
71296;SDS011;59082;50.658;4.608;2022-10-16T09:56:36;4.77;;;1.67;;
71296;SDS011;59082;50.658;4.608;2022-10-16T09:59:13;3.72;;;1.42;;
71296;SDS011;59082;50.658;4.608;2022-10-16T10:01:40;3.47;;;1.33;;
71296;SDS011;59082;50.658;4.608;2022-10-16T10:04:15;5.15;;;1.60;;
71296;SDS011;59082;50.658;4.608;2022-10-16T10:09:22;2.20;;;0.70;;
71296;SDS011;59082;50.658;4.608;2022-10-16T10:11:54;2.65;;;0.70;;
71296;SDS011;59082;50.658;4.608;2022-10-16T10:16:51;2.70;;;0.70;;
71296;SDS011;59082;50.658;4.608;2022-10-16T10:19:26;1.60;;;0.60;;
71296;SDS011;59082;50.658;4.608;2022-10-16T10:21:52;3.77;;;1.17;;
71296;SDS011;59082;50.658;4.608;2022-10-16T10:24:18;3.67;;;1.55;;
71296;SDS011;59082;50.658;4.608;2022-10-16T10:27:07;3.42;;;1.52;;
71296;SDS011;59082;50.658;4.608;2022-10-16T10:37:43;4.38;;;1.08;;
71296;SDS011;59082;50.658;4.608;2022-10-16T10:45:57;12.75;;;3.92;;
71296;SDS011;59082;50.658;4.608;2022-10-16T10:51:20;6.38;;;1.50;;
71296;SDS011;59082;50.658;4.608;2022-10-16T10:54:03;3.80;;;1.58;;
71296;SDS011;59082;50.658;4.608;2022-10-16T10:56:41;3.03;;;2.07;;
71296;SDS011;59082;50.658;4.608;2022-10-16T10:59:18;4.15;;;1.35;;
71296;SDS011;59082;50.658;4.608;2022-10-16T11:01:56;2.55;;;1.30;;
71296;SDS011;59082;50.658;4.608;2022-10-16T11:07:05;3.15;;;1.02;;
71296;SDS011;59082;50.658;4.608;2022-10-16T11:09:36;3.10;;;0.57;;
71296;SDS011;59082;50.658;4.608;2022-10-16T11:12:07;1.80;;;0.95;;
71296;SDS011;59082;50.658;4.608;2022-10-16T11:17:41;2.00;;;0.52;;
71296;SDS011;59082;50.658;4.608;2022-10-16T11:20:14;2.22;;;0.65;;
71296;SDS011;59082;50.658;4.608;2022-10-16T11:22:58;2.63;;;0.73;;
71296;SDS011;59082;50.658;4.608;2022-10-16T11:25:31;3.15;;;0.98;;
71296;SDS011;59082;50.658;4.608;2022-10-16T11:30:46;2.00;;;0.22;;
71296;SDS011;59082;50.658;4.608;2022-10-16T11:35:53;2.27;;;0.93;;
71296;SDS011;59082;50.658;4.608;2022-10-16T11:38:54;2.70;;;0.82;;
71296;SDS011;59082;50.658;4.608;2022-10-16T11:49:27;5.78;;;0.70;;
71296;SDS011;59082;50.658;4.608;2022-10-16T11:52:02;3.15;;;0.90;;
71296;SDS011;59082;50.658;4.608;2022-10-16T11:54:54;4.15;;;1.05;;
71296;SDS011;59082;50.658;4.608;2022-10-16T11:57:26;3.93;;;1.03;;
71296;SDS011;59082;50.658;4.608;2022-10-16T12:02:57;4.20;;;0.85;;
71296;SDS011;59082;50.658;4.608;2022-10-16T12:08:34;3.78;;;1.15;;
71296;SDS011;59082;50.658;4.608;2022-10-16T12:11:07;2.27;;;0.57;;
71296;SDS011;59082;50.658;4.608;2022-10-16T12:14:06;3.47;;;1.20;;
71296;SDS011;59082;50.658;4.608;2022-10-16T12:16:57;3.13;;;0.60;;
71296;SDS011;59082;50.658;4.608;2022-10-16T12:19:28;3.58;;;0.98;;
71296;SDS011;59082;50.658;4.608;2022-10-16T12:21:59;6.50;;;0.93;;
71296;SDS011;59082;50.658;4.608;2022-10-16T12:26:59;3.08;;;1.17;;
71296;SDS011;59082;50.658;4.608;2022-10-16T12:32:03;2.20;;;0.70;;
71296;SDS011;59082;50.658;4.608;2022-10-16T12:34:38;2.03;;;0.60;;
71296;SDS011;59082;50.658;4.608;2022-10-16T12:37:11;2.83;;;1.07;;
71296;SDS011;59082;50.658;4.608;2022-10-16T12:39:37;1.70;;;0.68;;
71296;SDS011;59082;50.658;4.608;2022-10-16T12:42:04;4.57;;;0.65;;
71296;SDS011;59082;50.658;4.608;2022-10-16T12:44:44;3.40;;;2.28;;
71296;SDS011;59082;50.658;4.608;2022-10-16T12:47:20;4.27;;;1.07;;
71296;SDS011;59082;50.658;4.608;2022-10-16T12:49:50;1.98;;;0.40;;
71296;SDS011;59082;50.658;4.608;2022-10-16T12:55:00;3.13;;;1.43;;
71296;SDS011;59082;50.658;4.608;2022-10-16T13:05:49;4.43;;;1.10;;
71296;SDS011;59082;50.658;4.608;2022-10-16T13:08:33;4.35;;;0.65;;
71296;SDS011;59082;50.658;4.608;2022-10-16T13:14:16;6.93;;;1.02;;
71296;SDS011;59082;50.658;4.608;2022-10-16T13:20:10;0.83;;;0.67;;
71296;SDS011;59082;50.658;4.608;2022-10-16T13:25:28;2.58;;;0.63;;
71296;SDS011;59082;50.658;4.608;2022-10-16T13:28:08;3.60;;;0.40;;
71296;SDS011;59082;50.658;4.608;2022-10-16T13:33:07;3.60;;;0.83;;
71296;SDS011;59082;50.658;4.608;2022-10-16T13:38:25;2.85;;;0.60;;
71296;SDS011;59082;50.658;4.608;2022-10-16T13:43:39;1.65;;;0.32;;
71296;SDS011;59082;50.658;4.608;2022-10-16T13:46:16;2.10;;;0.50;;
71296;SDS011;59082;50.658;4.608;2022-10-16T13:48:56;1.00;;;0.43;;
71296;SDS011;59082;50.658;4.608;2022-10-16T13:51:27;2.90;;;0.30;;
71296;SDS011;59082;50.658;4.608;2022-10-16T13:53:54;2.70;;;0.75;;
71296;SDS011;59082;50.658;4.608;2022-10-16T13:56:22;1.10;;;0.20;;
71296;SDS011;59082;50.658;4.608;2022-10-16T13:59:02;3.47;;;0.30;;
71296;SDS011;59082;50.658;4.608;2022-10-16T14:01:47;2.90;;;0.80;;
71296;SDS011;59082;50.658;4.608;2022-10-16T14:04:14;1.60;;;0.57;;
71296;SDS011;59082;50.658;4.608;2022-10-16T14:06:41;0.70;;;0.30;;
71296;SDS011;59082;50.658;4.608;2022-10-16T14:11:46;1.27;;;0.80;;
71296;SDS011;59082;50.658;4.608;2022-10-16T14:14:18;2.15;;;0.60;;
71296;SDS011;59082;50.658;4.608;2022-10-16T14:16:44;2.03;;;0.40;;
71296;SDS011;59082;50.658;4.608;2022-10-16T14:19:29;3.55;;;0.40;;
71296;SDS011;59082;50.658;4.608;2022-10-16T14:21:56;2.10;;;0.50;;
71296;SDS011;59082;50.658;4.608;2022-10-16T14:24:26;3.47;;;0.90;;
71296;SDS011;59082;50.658;4.608;2022-10-16T14:26:56;2.10;;;0.65;;
71296;SDS011;59082;50.658;4.608;2022-10-16T14:29:24;4.63;;;0.55;;
71296;SDS011;59082;50.658;4.608;2022-10-16T14:31:54;5.85;;;1.52;;
71296;SDS011;59082;50.658;4.608;2022-10-16T14:34:31;3.28;;;0.43;;
71296;SDS011;59082;50.658;4.608;2022-10-16T14:37:00;1.70;;;0.97;;
71296;SDS011;59082;50.658;4.608;2022-10-16T14:39:32;2.22;;;1.13;;
71296;SDS011;59082;50.658;4.608;2022-10-16T14:41:58;4.18;;;0.77;;
71296;SDS011;59082;50.658;4.608;2022-10-16T14:44:31;1.90;;;0.90;;
71296;SDS011;59082;50.658;4.608;2022-10-16T14:46:58;2.65;;;0.93;;
71296;SDS011;59082;50.658;4.608;2022-10-16T14:49:33;2.43;;;0.60;;
71296;SDS011;59082;50.658;4.608;2022-10-16T14:51:58;2.05;;;0.82;;
71296;SDS011;59082;50.658;4.608;2022-10-16T14:54:24;3.20;;;0.70;;
71296;SDS011;59082;50.658;4.608;2022-10-16T14:59:27;2.22;;;0.93;;
71296;SDS011;59082;50.658;4.608;2022-10-16T15:01:56;3.78;;;0.52;;
71296;SDS011;59082;50.658;4.608;2022-10-16T15:04:22;2.57;;;0.77;;
71296;SDS011;59082;50.658;4.608;2022-10-16T15:06:48;1.90;;;1.35;;
71296;SDS011;59082;50.658;4.608;2022-10-16T15:09:13;1.63;;;0.60;;
71296;SDS011;59082;50.658;4.608;2022-10-16T15:11:39;3.40;;;1.70;;
71296;SDS011;59082;50.658;4.608;2022-10-16T15:14:05;2.05;;;1.30;;
71296;SDS011;59082;50.658;4.608;2022-10-16T15:16:31;9.23;;;2.60;;
71296;SDS011;59082;50.658;4.608;2022-10-16T15:18:57;7.63;;;1.60;;
71296;SDS011;59082;50.658;4.608;2022-10-16T15:21:30;3.17;;;2.10;;
71296;SDS011;59082;50.658;4.608;2022-10-16T15:23:57;4.65;;;1.77;;
71296;SDS011;59082;50.658;4.608;2022-10-16T15:26:24;3.33;;;2.15;;
71296;SDS011;59082;50.658;4.608;2022-10-16T15:28:50;3.67;;;2.00;;
71296;SDS011;59082;50.658;4.608;2022-10-16T15:31:16;4.00;;;1.97;;
71296;SDS011;59082;50.658;4.608;2022-10-16T15:33:42;4.07;;;2.38;;
71296;SDS011;59082;50.658;4.608;2022-10-16T15:36:08;3.37;;;1.57;;
71296;SDS011;59082;50.658;4.608;2022-10-16T15:38:34;2.35;;;1.40;;
71296;SDS011;59082;50.658;4.608;2022-10-16T15:41:00;2.67;;;1.35;;
71296;SDS011;59082;50.658;4.608;2022-10-16T15:43:26;0.87;;;0.70;;
71296;SDS011;59082;50.658;4.608;2022-10-16T15:46:02;3.97;;;0.75;;
71296;SDS011;59082;50.658;4.608;2022-10-16T15:48:30;3.85;;;1.05;;
71296;SDS011;59082;50.658;4.608;2022-10-16T15:50:57;2.47;;;0.63;;
71296;SDS011;59082;50.658;4.608;2022-10-16T15:53:22;4.07;;;1.48;;
71296;SDS011;59082;50.658;4.608;2022-10-16T15:55:48;5.07;;;0.70;;
71296;SDS011;59082;50.658;4.608;2022-10-16T15:58:14;2.10;;;1.13;;
71296;SDS011;59082;50.658;4.608;2022-10-16T16:00:39;2.10;;;1.00;;
71296;SDS011;59082;50.658;4.608;2022-10-16T16:03:08;1.20;;;0.88;;
71296;SDS011;59082;50.658;4.608;2022-10-16T16:05:37;10.63;;;1.15;;
71296;SDS011;59082;50.658;4.608;2022-10-16T16:08:03;1.10;;;1.00;;
71296;SDS011;59082;50.658;4.608;2022-10-16T16:10:28;2.00;;;1.00;;
71296;SDS011;59082;50.658;4.608;2022-10-16T16:12:54;2.00;;;0.83;;
71296;SDS011;59082;50.658;4.608;2022-10-16T16:15:20;2.03;;;0.97;;
71296;SDS011;59082;50.658;4.608;2022-10-16T16:17:46;2.75;;;1.20;;
71296;SDS011;59082;50.658;4.608;2022-10-16T16:20:12;10.77;;;9.75;;
71296;SDS011;59082;50.658;4.608;2022-10-16T16:22:38;5.80;;;2.90;;
71296;SDS011;59082;50.658;4.608;2022-10-16T16:25:04;1.88;;;1.15;;
71296;SDS011;59082;50.658;4.608;2022-10-16T16:27:31;2.65;;;1.02;;
71296;SDS011;59082;50.658;4.608;2022-10-16T16:29:59;2.08;;;1.10;;
71296;SDS011;59082;50.658;4.608;2022-10-16T16:32:26;4.40;;;1.80;;
71296;SDS011;59082;50.658;4.608;2022-10-16T16:34:51;1.83;;;1.30;;
71296;SDS011;59082;50.658;4.608;2022-10-16T16:37:17;3.07;;;1.43;;
71296;SDS011;59082;50.658;4.608;2022-10-16T16:39:42;2.00;;;1.57;;
71296;SDS011;59082;50.658;4.608;2022-10-16T16:42:10;5.90;;;2.77;;
71296;SDS011;59082;50.658;4.608;2022-10-16T16:44:36;4.32;;;1.35;;
71296;SDS011;59082;50.658;4.608;2022-10-16T16:47:05;4.43;;;1.10;;
71296;SDS011;59082;50.658;4.608;2022-10-16T16:49:37;4.22;;;1.85;;
71296;SDS011;59082;50.658;4.608;2022-10-16T16:52:02;2.58;;;1.85;;
71296;SDS011;59082;50.658;4.608;2022-10-16T16:54:28;1.73;;;1.10;;
71296;SDS011;59082;50.658;4.608;2022-10-16T16:56:53;1.47;;;1.00;;
71296;SDS011;59082;50.658;4.608;2022-10-16T16:59:20;3.77;;;1.20;;
71296;SDS011;59082;50.658;4.608;2022-10-16T17:01:47;2.75;;;0.90;;
71296;SDS011;59082;50.658;4.608;2022-10-16T17:04:14;2.35;;;1.38;;
71296;SDS011;59082;50.658;4.608;2022-10-16T17:06:43;6.90;;;2.00;;
71296;SDS011;59082;50.658;4.608;2022-10-16T17:09:09;6.30;;;2.30;;
71296;SDS011;59082;50.658;4.608;2022-10-16T17:11:38;3.70;;;2.22;;
71296;SDS011;59082;50.658;4.608;2022-10-16T17:14:06;5.18;;;2.95;;
71296;SDS011;59082;50.658;4.608;2022-10-16T17:16:33;3.03;;;2.30;;
71296;SDS011;59082;50.658;4.608;2022-10-16T17:19:01;2.63;;;2.33;;
71296;SDS011;59082;50.658;4.608;2022-10-16T17:21:27;3.53;;;1.37;;
71296;SDS011;59082;50.658;4.608;2022-10-16T17:23:55;4.75;;;1.70;;
71296;SDS011;59082;50.658;4.608;2022-10-16T17:26:21;2.17;;;1.40;;
71296;SDS011;59082;50.658;4.608;2022-10-16T17:28:50;2.57;;;2.03;;
71296;SDS011;59082;50.658;4.608;2022-10-16T17:31:21;2.58;;;1.95;;
71296;SDS011;59082;50.658;4.608;2022-10-16T17:33:50;5.00;;;2.28;;
71296;SDS011;59082;50.658;4.608;2022-10-16T17:36:16;5.82;;;3.05;;
71296;SDS011;59082;50.658;4.608;2022-10-16T17:38:44;4.20;;;2.10;;
71296;SDS011;59082;50.658;4.608;2022-10-16T17:41:13;2.65;;;1.48;;
71296;SDS011;59082;50.658;4.608;2022-10-16T17:43:44;5.15;;;1.90;;
71296;SDS011;59082;50.658;4.608;2022-10-16T17:46:10;2.10;;;1.58;;
71296;SDS011;59082;50.658;4.608;2022-10-16T17:48:38;2.17;;;1.30;;
71296;SDS011;59082;50.658;4.608;2022-10-16T17:51:06;2.47;;;2.27;;
71296;SDS011;59082;50.658;4.608;2022-10-16T17:53:32;4.68;;;2.17;;
71296;SDS011;59082;50.658;4.608;2022-10-16T17:56:16;4.05;;;2.25;;
71296;SDS011;59082;50.658;4.608;2022-10-16T17:58:43;2.60;;;2.10;;
71296;SDS011;59082;50.658;4.608;2022-10-16T18:04:06;4.10;;;1.60;;
71296;SDS011;59082;50.658;4.608;2022-10-16T18:06:36;2.75;;;1.67;;
71296;SDS011;59082;50.658;4.608;2022-10-16T18:09:02;4.70;;;1.85;;
71296;SDS011;59082;50.658;4.608;2022-10-16T18:11:28;2.35;;;1.80;;
71296;SDS011;59082;50.658;4.608;2022-10-16T18:13:56;5.13;;;2.60;;
71296;SDS011;59082;50.658;4.608;2022-10-16T18:16:23;4.30;;;2.80;;
71296;SDS011;59082;50.658;4.608;2022-10-16T18:18:49;3.80;;;2.20;;
71296;SDS011;59082;50.658;4.608;2022-10-16T18:21:16;5.53;;;2.90;;
71296;SDS011;59082;50.658;4.608;2022-10-16T18:23:43;3.90;;;2.55;;
71296;SDS011;59082;50.658;4.608;2022-10-16T18:26:11;4.93;;;2.28;;
71296;SDS011;59082;50.658;4.608;2022-10-16T18:28:37;3.78;;;2.60;;
71296;SDS011;59082;50.658;4.608;2022-10-16T18:31:04;3.10;;;2.30;;
71296;SDS011;59082;50.658;4.608;2022-10-16T18:33:33;5.40;;;2.72;;
71296;SDS011;59082;50.658;4.608;2022-10-16T18:36:00;3.35;;;2.58;;
71296;SDS011;59082;50.658;4.608;2022-10-16T18:38:28;4.78;;;3.83;;
71296;SDS011;59082;50.658;4.608;2022-10-16T18:40:54;2.90;;;2.60;;
71296;SDS011;59082;50.658;4.608;2022-10-16T18:43:21;3.37;;;2.77;;
71296;SDS011;59082;50.658;4.608;2022-10-16T18:45:54;3.47;;;2.65;;
71296;SDS011;59082;50.658;4.608;2022-10-16T18:48:23;4.50;;;3.63;;
71296;SDS011;59082;50.658;4.608;2022-10-16T18:50:49;4.75;;;3.33;;
71296;SDS011;59082;50.658;4.608;2022-10-16T18:53:19;4.93;;;2.55;;
71296;SDS011;59082;50.658;4.608;2022-10-16T18:55:51;4.50;;;3.27;;
71296;SDS011;59082;50.658;4.608;2022-10-16T18:58:18;4.90;;;3.85;;
71296;SDS011;59082;50.658;4.608;2022-10-16T19:00:44;4.60;;;3.50;;
71296;SDS011;59082;50.658;4.608;2022-10-16T19:03:09;5.73;;;3.60;;
71296;SDS011;59082;50.658;4.608;2022-10-16T19:05:35;4.78;;;3.63;;
71296;SDS011;59082;50.658;4.608;2022-10-16T19:08:00;6.47;;;4.07;;
71296;SDS011;59082;50.658;4.608;2022-10-16T19:10:26;5.50;;;3.73;;
71296;SDS011;59082;50.658;4.608;2022-10-16T19:12:51;5.38;;;4.47;;
71296;SDS011;59082;50.658;4.608;2022-10-16T19:15:17;6.53;;;4.20;;
71296;SDS011;59082;50.658;4.608;2022-10-16T19:17:42;5.43;;;4.93;;
71296;SDS011;59082;50.658;4.608;2022-10-16T19:20:08;6.63;;;4.43;;
71296;SDS011;59082;50.658;4.608;2022-10-16T19:22:34;7.77;;;7.07;;
71296;SDS011;59082;50.658;4.608;2022-10-16T19:25:25;8.15;;;5.65;;
71296;SDS011;59082;50.658;4.608;2022-10-16T19:27:52;6.85;;;5.80;;
71296;SDS011;59082;50.658;4.608;2022-10-16T19:30:19;8.50;;;6.20;;
71296;SDS011;59082;50.658;4.608;2022-10-16T19:32:44;8.43;;;7.13;;
71296;SDS011;59082;50.658;4.608;2022-10-16T19:35:10;8.40;;;6.00;;
71296;SDS011;59082;50.658;4.608;2022-10-16T19:37:36;7.50;;;5.35;;
71296;SDS011;59082;50.658;4.608;2022-10-16T19:40:02;6.97;;;5.37;;
71296;SDS011;59082;50.658;4.608;2022-10-16T19:42:29;7.43;;;5.03;;
71296;SDS011;59082;50.658;4.608;2022-10-16T19:44:55;4.90;;;4.03;;
71296;SDS011;59082;50.658;4.608;2022-10-16T19:47:21;4.33;;;3.93;;
71296;SDS011;59082;50.658;4.608;2022-10-16T19:49:49;5.32;;;3.85;;
71296;SDS011;59082;50.658;4.608;2022-10-16T19:52:18;3.60;;;3.30;;
71296;SDS011;59082;50.658;4.608;2022-10-16T19:54:46;4.27;;;2.93;;
71296;SDS011;59082;50.658;4.608;2022-10-16T19:57:12;4.60;;;3.97;;
71296;SDS011;59082;50.658;4.608;2022-10-16T19:59:37;4.23;;;3.83;;
71296;SDS011;59082;50.658;4.608;2022-10-16T20:02:03;4.72;;;4.22;;
71296;SDS011;59082;50.658;4.608;2022-10-16T20:04:32;4.93;;;4.00;;
71296;SDS011;59082;50.658;4.608;2022-10-16T20:06:58;5.00;;;3.83;;
71296;SDS011;59082;50.658;4.608;2022-10-16T20:09:33;7.57;;;3.90;;
71296;SDS011;59082;50.658;4.608;2022-10-16T20:11:59;5.95;;;4.28;;
71296;SDS011;59082;50.658;4.608;2022-10-16T20:14:26;6.03;;;4.53;;
71296;SDS011;59082;50.658;4.608;2022-10-16T20:16:52;5.63;;;4.75;;
71296;SDS011;59082;50.658;4.608;2022-10-16T20:19:18;5.30;;;4.37;;
71296;SDS011;59082;50.658;4.608;2022-10-16T20:21:43;5.57;;;5.03;;
71296;SDS011;59082;50.658;4.608;2022-10-16T20:24:09;7.50;;;4.73;;
71296;SDS011;59082;50.658;4.608;2022-10-16T20:26:35;5.18;;;4.70;;
71296;SDS011;59082;50.658;4.608;2022-10-16T20:29:01;6.20;;;5.47;;
71296;SDS011;59082;50.658;4.608;2022-10-16T20:31:28;5.93;;;4.95;;
71296;SDS011;59082;50.658;4.608;2022-10-16T20:33:55;5.72;;;4.75;;
71296;SDS011;59082;50.658;4.608;2022-10-16T20:36:23;5.13;;;4.60;;
71296;SDS011;59082;50.658;4.608;2022-10-16T20:38:50;5.68;;;5.05;;
71296;SDS011;59082;50.658;4.608;2022-10-16T20:41:16;5.93;;;5.03;;
71296;SDS011;59082;50.658;4.608;2022-10-16T20:43:43;7.55;;;4.93;;
71296;SDS011;59082;50.658;4.608;2022-10-16T20:46:11;6.05;;;5.30;;
71296;SDS011;59082;50.658;4.608;2022-10-16T20:48:38;7.03;;;4.97;;
71296;SDS011;59082;50.658;4.608;2022-10-16T20:51:11;6.68;;;4.97;;
71296;SDS011;59082;50.658;4.608;2022-10-16T20:53:53;8.17;;;5.37;;
71296;SDS011;59082;50.658;4.608;2022-10-16T20:56:21;5.63;;;4.55;;
71296;SDS011;59082;50.658;4.608;2022-10-16T20:58:49;6.47;;;5.18;;
71296;SDS011;59082;50.658;4.608;2022-10-16T21:01:16;7.53;;;6.05;;
71296;SDS011;59082;50.658;4.608;2022-10-16T21:03:47;7.50;;;5.65;;
71296;SDS011;59082;50.658;4.608;2022-10-16T21:06:14;6.27;;;5.53;;
71296;SDS011;59082;50.658;4.608;2022-10-16T21:08:41;9.63;;;6.18;;
71296;SDS011;59082;50.658;4.608;2022-10-16T21:13:37;7.33;;;5.53;;
71296;SDS011;59082;50.658;4.608;2022-10-16T21:16:02;7.05;;;5.43;;
71296;SDS011;59082;50.658;4.608;2022-10-16T21:18:28;8.25;;;5.70;;
71296;SDS011;59082;50.658;4.608;2022-10-16T21:20:54;10.13;;;6.00;;
71296;SDS011;59082;50.658;4.608;2022-10-16T21:23:19;8.05;;;5.20;;
71296;SDS011;59082;50.658;4.608;2022-10-16T21:25:48;10.77;;;6.50;;
71296;SDS011;59082;50.658;4.608;2022-10-16T21:28:15;9.10;;;6.32;;
71296;SDS011;59082;50.658;4.608;2022-10-16T21:30:41;10.35;;;6.88;;
71296;SDS011;59082;50.658;4.608;2022-10-16T21:33:06;14.37;;;7.50;;
71296;SDS011;59082;50.658;4.608;2022-10-16T21:35:32;11.80;;;7.83;;
71296;SDS011;59082;50.658;4.608;2022-10-16T21:37:57;14.07;;;7.55;;
71296;SDS011;59082;50.658;4.608;2022-10-16T21:40:23;10.97;;;7.73;;
71296;SDS011;59082;50.658;4.608;2022-10-16T21:42:48;9.53;;;6.70;;
71296;SDS011;59082;50.658;4.608;2022-10-16T21:45:14;9.98;;;7.47;;
71296;SDS011;59082;50.658;4.608;2022-10-16T21:47:39;9.07;;;6.70;;
71296;SDS011;59082;50.658;4.608;2022-10-16T21:50:06;7.73;;;6.87;;
71296;SDS011;59082;50.658;4.608;2022-10-16T21:52:31;9.73;;;7.55;;
71296;SDS011;59082;50.658;4.608;2022-10-16T21:54:57;11.70;;;7.50;;
71296;SDS011;59082;50.658;4.608;2022-10-16T21:57:22;11.67;;;7.73;;
71296;SDS011;59082;50.658;4.608;2022-10-16T21:59:48;11.80;;;7.70;;
71296;SDS011;59082;50.658;4.608;2022-10-16T22:02:14;12.20;;;7.65;;
71296;SDS011;59082;50.658;4.608;2022-10-16T22:04:40;11.03;;;7.40;;
71296;SDS011;59082;50.658;4.608;2022-10-16T22:07:05;9.48;;;7.10;;
71296;SDS011;59082;50.658;4.608;2022-10-16T22:09:31;9.60;;;7.60;;
71296;SDS011;59082;50.658;4.608;2022-10-16T22:11:57;10.57;;;7.45;;
71296;SDS011;59082;50.658;4.608;2022-10-16T22:14:23;10.17;;;7.63;;
71296;SDS011;59082;50.658;4.608;2022-10-16T22:16:49;11.38;;;8.32;;
71296;SDS011;59082;50.658;4.608;2022-10-16T22:19:15;10.70;;;7.13;;
71296;SDS011;59082;50.658;4.608;2022-10-16T22:21:44;10.93;;;7.70;;
71296;SDS011;59082;50.658;4.608;2022-10-16T22:24:11;9.05;;;7.05;;
71296;SDS011;59082;50.658;4.608;2022-10-16T22:26:37;9.95;;;7.40;;
71296;SDS011;59082;50.658;4.608;2022-10-16T22:29:03;10.05;;;6.90;;
71296;SDS011;59082;50.658;4.608;2022-10-16T22:31:29;10.57;;;6.70;;
71296;SDS011;59082;50.658;4.608;2022-10-16T22:33:59;10.30;;;6.97;;
71296;SDS011;59082;50.658;4.608;2022-10-16T22:36:27;10.02;;;7.00;;
71296;SDS011;59082;50.658;4.608;2022-10-16T22:38:53;10.40;;;7.25;;
71296;SDS011;59082;50.658;4.608;2022-10-16T22:41:20;11.50;;;8.17;;
71296;SDS011;59082;50.658;4.608;2022-10-16T22:43:46;13.07;;;8.93;;
71296;SDS011;59082;50.658;4.608;2022-10-16T22:46:17;17.20;;;10.60;;
71296;SDS011;59082;50.658;4.608;2022-10-16T22:48:53;13.27;;;8.13;;
71296;SDS011;59082;50.658;4.608;2022-10-16T22:51:19;16.20;;;9.60;;
71296;SDS011;59082;50.658;4.608;2022-10-16T22:53:46;15.50;;;9.63;;
71296;SDS011;59082;50.658;4.608;2022-10-16T22:56:13;13.30;;;9.30;;
71296;SDS011;59082;50.658;4.608;2022-10-16T22:58:39;14.23;;;9.45;;
71296;SDS011;59082;50.658;4.608;2022-10-16T23:01:19;21.70;;;9.87;;
71296;SDS011;59082;50.658;4.608;2022-10-16T23:03:47;17.95;;;11.15;;
71296;SDS011;59082;50.658;4.608;2022-10-16T23:06:13;24.57;;;11.77;;
71296;SDS011;59082;50.658;4.608;2022-10-16T23:08:39;19.20;;;10.50;;
71296;SDS011;59082;50.658;4.608;2022-10-16T23:11:08;16.58;;;9.25;;
71296;SDS011;59082;50.658;4.608;2022-10-16T23:13:36;16.77;;;8.87;;
71296;SDS011;59082;50.658;4.608;2022-10-16T23:16:02;14.75;;;9.30;;
71296;SDS011;59082;50.658;4.608;2022-10-16T23:18:29;15.32;;;9.32;;
71296;SDS011;59082;50.658;4.608;2022-10-16T23:20:55;24.55;;;11.02;;
71296;SDS011;59082;50.658;4.608;2022-10-16T23:23:20;20.30;;;9.57;;
71296;SDS011;59082;50.658;4.608;2022-10-16T23:25:46;26.63;;;11.60;;
71296;SDS011;59082;50.658;4.608;2022-10-16T23:28:12;27.73;;;11.50;;